Terminal Aerodrome Forecast
Issued by NWS Wilmington, NC

Current Version | Previous Version | Graphics & Text | Print | Product List | Glossary Off
Versions: 1 2 3 4 5 6 7 8 9 10 11 12 13 14 15 16 17 18 19 20 21 22 23 24 25 26

000
FTUS42 KILM 051100
TAFFLO
TAF
KFLO 051131Z 0512/0612 20011G18KT P6SM SCT015 SCT060 WS010/23035KT
      TEMPO 0512/0515 BKN015
     FM051500 24013G25KT P6SM SCT007 SCT012 BKN050
     FM052100 34013G23KT 4SM -SHRA BKN006 OVC025
     FM060400 02018G28KT P6SM VCSH SCT007 OVC015=

USA.gov is the U.S. government's official web portal to all federal, state and local government web resources and services.